createdAt,value
2022-10-05T00:03:20.978Z,3.70
2022-10-05T00:08:25.495Z,3.53
2022-10-05T00:13:29.651Z,3.55
2022-10-05T00:18:32.568Z,3.15
2022-10-05T00:23:34.258Z,2.72
2022-10-05T00:28:35.823Z,2.60
2022-10-05T00:33:37.365Z,3.13
2022-10-05T00:38:40.169Z,3.00
2022-10-05T00:43:44.606Z,2.97
2022-10-05T00:49:02.451Z,2.15
2022-10-05T00:54:28.294Z,2.53
2022-10-05T00:59:59.790Z,2.13
2022-10-05T01:05:29.456Z,1.98
2022-10-05T01:10:42.987Z,2.22
2022-10-05T01:15:56.960Z,2.45
2022-10-05T01:21:10.967Z,1.92
2022-10-05T01:26:49.739Z,2.10
2022-10-05T01:32:13.404Z,2.05
2022-10-05T01:37:19.903Z,2.65
2022-10-05T01:42:24.422Z,2.22
2022-10-05T01:48:03.969Z,2.20
2022-10-05T01:53:26.096Z,2.30
2022-10-05T01:58:35.769Z,1.80
2022-10-05T02:03:45.463Z,2.20
2022-10-05T02:08:52.082Z,2.30
2022-10-05T02:14:11.041Z,1.67
2022-10-05T02:19:34.196Z,2.47
2022-10-05T02:24:40.846Z,1.52
2022-10-05T02:29:48.331Z,1.70
2022-10-05T02:34:51.195Z,1.50
2022-10-05T02:40:08.351Z,2.17
2022-10-05T02:45:13.435Z,1.45
2022-10-05T02:50:24.423Z,1.50
2022-10-05T02:55:40.399Z,1.92
2022-10-05T03:00:54.118Z,1.80
2022-10-05T03:06:03.450Z,1.75
2022-10-05T03:11:30.179Z,1.75
2022-10-05T03:22:04.986Z,1.58
2022-10-05T03:27:17.338Z,2.03
2022-10-05T03:32:45.740Z,2.45
2022-10-05T03:38:00.571Z,2.20
2022-10-05T03:43:29.804Z,1.88
2022-10-05T03:48:47.710Z,2.00
2022-10-05T03:53:54.657Z,2.00
2022-10-05T03:59:03.248Z,2.20
2022-10-05T04:04:11.319Z,2.63
2022-10-05T04:14:32.102Z,2.47
2022-10-05T04:20:11.278Z,2.25
2022-10-05T04:25:22.633Z,2.97
2022-10-05T04:30:24.466Z,2.67
2022-10-05T04:35:41.043Z,3.08
2022-10-05T04:41:10.301Z,2.90
2022-10-05T04:46:30.933Z,3.13
2022-10-05T04:51:57.178Z,2.90
2022-10-05T04:57:02.314Z,2.93
2022-10-05T05:02:21.248Z,3.03
2022-10-05T05:13:09.501Z,2.97
2022-10-05T05:18:33.668Z,2.72
2022-10-05T05:23:41.641Z,3.03
2022-10-05T05:28:59.339Z,3.75
2022-10-05T05:34:26.083Z,3.92
2022-10-05T05:39:33.837Z,4.40
2022-10-05T05:44:44.465Z,4.90
2022-10-05T05:50:08.259Z,4.68
2022-10-05T05:55:12.681Z,5.25
2022-10-05T06:00:34.254Z,5.15
2022-10-05T06:05:46.742Z,4.78
2022-10-05T06:10:53.019Z,4.28
2022-10-05T06:16:08.846Z,4.72
2022-10-05T06:21:39.831Z,3.60
2022-10-05T06:26:44.807Z,5.63
2022-10-05T06:31:58.921Z,3.03
2022-10-05T06:37:07.243Z,2.55
2022-10-05T06:42:46.881Z,2.38
2022-10-05T06:48:28.778Z,2.00
2022-10-05T06:54:04.106Z,2.00
2022-10-05T06:59:20.250Z,2.47
2022-10-05T07:04:40.680Z,3.13
2022-10-05T07:10:01.361Z,2.88
2022-10-05T07:15:15.138Z,2.75
2022-10-05T07:20:32.293Z,3.45
2022-10-05T07:25:50.438Z,3.28
2022-10-05T07:30:53.288Z,2.90
2022-10-05T07:36:22.861Z,2.42
2022-10-05T07:41:40.253Z,2.92
2022-10-05T07:52:13.105Z,3.00
2022-10-05T07:57:28.676Z,2.05
2022-10-05T08:02:42.668Z,2.22
2022-10-05T08:07:45.823Z,2.30
2022-10-05T08:13:00.709Z,2.50
2022-10-05T08:18:14.361Z,2.33
2022-10-05T08:23:42.445Z,2.03
2022-10-05T08:28:59.207Z,2.40
2022-10-05T08:39:17.095Z,3.53
2022-10-05T08:44:55.577Z,2.83
2022-10-05T08:50:19.567Z,3.17
2022-10-05T08:55:36.852Z,3.30
2022-10-05T09:00:49.305Z,3.13
2022-10-05T09:06:01.741Z,2.85
2022-10-05T09:11:32.340Z,3.85
2022-10-05T09:16:58.233Z,2.70
2022-10-05T09:22:25.207Z,3.47
2022-10-05T09:27:38.305Z,3.00
2022-10-05T09:33:25.701Z,3.35
2022-10-05T09:38:35.958Z,3.10
2022-10-05T09:43:52.548Z,3.20
2022-10-05T09:48:56.861Z,2.70
2022-10-05T09:54:29.223Z,2.70
2022-10-05T09:59:55.462Z,3.03
2022-10-05T10:10:16.796Z,2.03
2022-10-05T10:15:18.202Z,2.63
2022-10-05T10:20:36.427Z,2.70
2022-10-05T10:25:46.692Z,1.90
2022-10-05T10:31:11.901Z,2.25
2022-10-05T10:36:21.604Z,2.20
2022-10-05T10:41:51.827Z,2.10
2022-10-05T10:47:24.319Z,1.92
2022-10-05T10:52:53.504Z,2.58
2022-10-05T10:58:16.435Z,2.42
2022-10-05T11:03:26.922Z,2.13
2022-10-05T11:09:03.222Z,2.13
2022-10-05T11:14:21.331Z,1.98
2022-10-05T11:20:03.016Z,1.80
2022-10-05T11:25:24.171Z,1.70
2022-10-05T11:31:07.365Z,1.73
2022-10-05T11:36:34.148Z,1.85
2022-10-05T11:41:48.099Z,1.65
2022-10-05T11:47:04.963Z,1.88
2022-10-05T11:52:18.696Z,1.65
2022-10-05T11:57:37.826Z,1.90
2022-10-05T12:02:52.968Z,1.60
2022-10-05T12:08:12.969Z,1.67
2022-10-05T12:13:40.113Z,1.77
2022-10-05T12:18:48.736Z,1.50
2022-10-05T12:24:08.456Z,1.50
2022-10-05T12:29:49.176Z,1.65
2022-10-05T12:34:50.606Z,1.35
2022-10-05T12:40:08.102Z,1.40
2022-10-05T12:45:21.050Z,1.73
2022-10-05T12:50:31.530Z,1.30
2022-10-05T12:55:42.979Z,1.77
2022-10-05T13:00:57.408Z,1.50
2022-10-05T13:06:09.954Z,1.50
2022-10-05T13:11:19.019Z,1.40
2022-10-05T13:16:35.839Z,1.42
2022-10-05T13:21:46.277Z,1.63
2022-10-05T13:27:11.266Z,1.30
2022-10-05T13:32:18.544Z,1.07
2022-10-05T13:37:28.917Z,1.13
2022-10-05T13:42:41.699Z,1.05
2022-10-05T13:48:04.790Z,1.30
2022-10-05T13:53:35.458Z,1.20
2022-10-05T13:58:57.609Z,1.40
2022-10-05T14:04:20.545Z,1.25
2022-10-05T14:09:25.418Z,1.20
2022-10-05T14:14:30.585Z,0.88
2022-10-05T14:19:41.170Z,1.33
2022-10-05T14:25:13.666Z,1.20
2022-10-05T14:30:15.110Z,1.27
2022-10-05T14:35:20.708Z,1.40
2022-10-05T14:40:28.239Z,1.33
2022-10-05T14:45:30.144Z,1.25
2022-10-05T14:50:32.108Z,1.00
2022-10-05T14:55:51.421Z,0.63
2022-10-05T15:01:00.169Z,0.70
2022-10-05T15:06:02.349Z,0.60
2022-10-05T15:11:07.489Z,0.60
2022-10-05T15:16:19.975Z,0.98
2022-10-05T15:21:46.064Z,0.70
2022-10-05T15:26:56.946Z,0.80
2022-10-05T15:32:03.672Z,0.73
2022-10-05T15:37:24.481Z,0.90
2022-10-05T15:42:41.523Z,0.90
2022-10-05T15:47:47.946Z,1.15
2022-10-05T15:58:39.578Z,1.50
2022-10-05T16:03:51.170Z,1.73
2022-10-05T16:22:18.391Z,2.10
2022-10-05T16:28:22.386Z,2.47
2022-10-05T17:09:14.460Z,3.28
2022-10-05T17:14:39.611Z,3.90
2022-10-05T17:20:16.124Z,3.70
2022-10-05T17:25:37.436Z,3.50
2022-10-05T17:31:18.070Z,3.80
2022-10-05T17:36:22.115Z,3.85
2022-10-05T17:41:29.437Z,4.10
2022-10-05T17:46:46.041Z,4.55
2022-10-05T17:57:07.822Z,5.80
2022-10-05T18:02:22.409Z,5.45
2022-10-05T18:07:25.453Z,5.05
2022-10-05T18:12:40.386Z,6.50
2022-10-05T18:17:59.534Z,5.63
2022-10-05T18:23:01.149Z,5.43
2022-10-05T18:28:54.859Z,5.22
2022-10-05T18:34:13.217Z,5.55
2022-10-05T18:39:35.528Z,5.63
2022-10-05T18:44:58.524Z,5.43
2022-10-05T18:50:08.768Z,6.55
2022-10-05T18:55:21.011Z,5.53
2022-10-05T19:00:24.312Z,5.47
2022-10-05T19:05:46.949Z,5.45
2022-10-05T19:11:23.123Z,5.50
2022-10-05T19:17:03.223Z,6.28
2022-10-05T19:22:25.113Z,5.65
2022-10-05T19:27:26.740Z,6.55
2022-10-05T19:32:52.887Z,7.00
2022-10-05T19:38:06.445Z,6.72
2022-10-05T19:43:11.608Z,6.72
2022-10-05T19:48:32.040Z,6.50
2022-10-05T19:53:38.816Z,6.35
2022-10-05T19:58:40.311Z,6.03
2022-10-05T20:03:47.397Z,6.65
2022-10-05T20:08:51.965Z,6.80
2022-10-05T20:13:53.463Z,7.75
2022-10-05T20:19:13.525Z,8.05
2022-10-05T20:24:29.429Z,9.82
2022-10-05T20:29:39.205Z,10.55
2022-10-05T20:34:42.872Z,9.75
2022-10-05T20:39:44.833Z,9.93
2022-10-05T20:44:46.860Z,9.30
2022-10-05T20:49:48.681Z,8.88
2022-10-05T20:54:53.967Z,9.50
2022-10-05T20:59:55.739Z,8.25
2022-10-05T21:04:57.288Z,8.32
2022-10-05T21:09:59.069Z,7.38
2022-10-05T21:15:01.682Z,7.65
2022-10-05T21:20:03.545Z,6.28
2022-10-05T21:25:08.799Z,6.63
2022-10-05T21:30:10.708Z,5.63
2022-10-05T21:35:12.253Z,6.20
2022-10-05T21:40:13.993Z,5.95
2022-10-05T21:45:15.640Z,5.25
2022-10-05T21:50:17.487Z,4.35
2022-10-05T21:55:20.246Z,3.55
2022-10-05T22:00:21.835Z,1.60
2022-10-05T22:05:23.494Z,1.30
2022-10-05T22:10:25.181Z,1.52
2022-10-05T22:15:28.340Z,1.10
2022-10-05T22:20:30.222Z,1.67
2022-10-05T22:25:34.055Z,1.10
2022-10-05T22:30:36.498Z,1.13
2022-10-05T22:35:38.798Z,1.10
2022-10-05T22:40:40.377Z,1.00
2022-10-05T22:45:42.507Z,1.20
2022-10-05T22:50:45.487Z,1.15
2022-10-05T22:55:47.008Z,1.00
2022-10-05T23:00:57.903Z,1.20
2022-10-05T23:06:03.579Z,1.20
2022-10-05T23:11:06.250Z,1.00
2022-10-05T23:16:13.725Z,1.10
2022-10-05T23:21:15.464Z,1.17
2022-10-05T23:26:22.251Z,1.25
2022-10-05T23:31:26.317Z,1.10
2022-10-05T23:36:32.211Z,1.10
2022-10-05T23:41:34.450Z,1.17
2022-10-05T23:46:36.044Z,1.13
2022-10-05T23:51:37.597Z,1.13
2022-10-05T23:56:39.152Z,1.17
